sensor_id;sensor_type;location;lat;lon;timestamp;P1;durP1;ratioP1;P2;durP2;ratioP2
45033;SDS011;30771;47.988;-4.186;2023-07-31T06:02:32;72.00;;;15.75;;
45033;SDS011;30771;47.988;-4.186;2023-07-31T06:05:01;64.05;;;14.43;;
45033;SDS011;30771;47.988;-4.186;2023-07-31T06:07:27;59.90;;;13.73;;
45033;SDS011;30771;47.988;-4.186;2023-07-31T06:09:52;73.03;;;14.73;;
45033;SDS011;30771;47.988;-4.186;2023-07-31T06:12:19;64.55;;;15.00;;
45033;SDS011;30771;47.988;-4.186;2023-07-31T06:14:45;79.50;;;15.98;;
45033;SDS011;30771;47.988;-4.186;2023-07-31T06:17:11;63.42;;;14.32;;
45033;SDS011;30771;47.988;-4.186;2023-07-31T06:19:36;73.38;;;14.63;;
45033;SDS011;30771;47.988;-4.186;2023-07-31T06:22:01;71.22;;;15.10;;
45033;SDS011;30771;47.988;-4.186;2023-07-31T06:24:27;49.65;;;13.15;;
45033;SDS011;30771;47.988;-4.186;2023-07-31T06:26:53;57.25;;;14.25;;
45033;SDS011;30771;47.988;-4.186;2023-07-31T06:29:18;57.88;;;14.05;;
45033;SDS011;30771;47.988;-4.186;2023-07-31T06:31:44;60.97;;;12.93;;
45033;SDS011;30771;47.988;-4.186;2023-07-31T06:34:09;55.53;;;11.38;;
45033;SDS011;30771;47.988;-4.186;2023-07-31T06:36:34;64.35;;;13.75;;
45033;SDS011;30771;47.988;-4.186;2023-07-31T06:39:00;66.97;;;14.13;;
45033;SDS011;30771;47.988;-4.186;2023-07-31T06:41:25;63.22;;;14.18;;
45033;SDS011;30771;47.988;-4.186;2023-07-31T06:43:51;54.63;;;14.02;;
45033;SDS011;30771;47.988;-4.186;2023-07-31T06:46:16;67.95;;;14.60;;
45033;SDS011;30771;47.988;-4.186;2023-07-31T06:48:41;72.50;;;14.90;;
45033;SDS011;30771;47.988;-4.186;2023-07-31T06:51:07;71.65;;;14.85;;
45033;SDS011;30771;47.988;-4.186;2023-07-31T06:53:32;62.33;;;13.63;;
45033;SDS011;30771;47.988;-4.186;2023-07-31T06:55:57;62.15;;;12.82;;
45033;SDS011;30771;47.988;-4.186;2023-07-31T06:58:23;54.00;;;14.05;;
45033;SDS011;30771;47.988;-4.186;2023-07-31T07:00:48;62.50;;;13.18;;
45033;SDS011;30771;47.988;-4.186;2023-07-31T07:03:19;57.67;;;13.93;;
45033;SDS011;30771;47.988;-4.186;2023-07-31T07:05:45;76.15;;;14.07;;
45033;SDS011;30771;47.988;-4.186;2023-07-31T07:08:10;59.90;;;13.77;;
45033;SDS011;30771;47.988;-4.186;2023-07-31T07:10:36;62.33;;;13.80;;
45033;SDS011;30771;47.988;-4.186;2023-07-31T07:13:02;54.33;;;13.13;;
45033;SDS011;30771;47.988;-4.186;2023-07-31T07:15:27;55.92;;;12.95;;
45033;SDS011;30771;47.988;-4.186;2023-07-31T07:17:53;58.95;;;12.38;;
45033;SDS011;30771;47.988;-4.186;2023-07-31T07:20:19;60.35;;;13.25;;
45033;SDS011;30771;47.988;-4.186;2023-07-31T07:22:45;42.72;;;11.07;;
45033;SDS011;30771;47.988;-4.186;2023-07-31T07:25:10;55.72;;;12.77;;
45033;SDS011;30771;47.988;-4.186;2023-07-31T07:27:36;62.50;;;13.27;;
45033;SDS011;30771;47.988;-4.186;2023-07-31T07:30:01;52.63;;;13.00;;
45033;SDS011;30771;47.988;-4.186;2023-07-31T07:32:26;49.65;;;13.35;;
45033;SDS011;30771;47.988;-4.186;2023-07-31T07:34:52;56.25;;;13.63;;
45033;SDS011;30771;47.988;-4.186;2023-07-31T07:37:17;48.88;;;11.43;;
45033;SDS011;30771;47.988;-4.186;2023-07-31T07:39:42;45.45;;;10.88;;
45033;SDS011;30771;47.988;-4.186;2023-07-31T07:42:08;31.45;;;9.88;;
45033;SDS011;30771;47.988;-4.186;2023-07-31T07:44:33;45.75;;;11.32;;
45033;SDS011;30771;47.988;-4.186;2023-07-31T07:46:59;33.95;;;9.32;;
45033;SDS011;30771;47.988;-4.186;2023-07-31T07:49:24;42.08;;;9.77;;
45033;SDS011;30771;47.988;-4.186;2023-07-31T07:51:50;23.13;;;6.65;;
45033;SDS011;30771;47.988;-4.186;2023-07-31T07:54:15;19.38;;;7.30;;
45033;SDS011;30771;47.988;-4.186;2023-07-31T07:56:42;14.88;;;6.25;;
45033;SDS011;30771;47.988;-4.186;2023-07-31T07:59:08;18.10;;;6.75;;
45033;SDS011;30771;47.988;-4.186;2023-07-31T08:01:33;15.48;;;5.72;;
45033;SDS011;30771;47.988;-4.186;2023-07-31T08:03:59;16.23;;;5.65;;
45033;SDS011;30771;47.988;-4.186;2023-07-31T08:06:24;13.35;;;5.38;;
45033;SDS011;30771;47.988;-4.186;2023-07-31T08:08:50;14.70;;;6.15;;
45033;SDS011;30771;47.988;-4.186;2023-07-31T08:11:15;18.60;;;6.60;;
45033;SDS011;30771;47.988;-4.186;2023-07-31T08:13:40;22.85;;;7.68;;
45033;SDS011;30771;47.988;-4.186;2023-07-31T08:16:06;26.20;;;7.93;;
45033;SDS011;30771;47.988;-4.186;2023-07-31T08:18:31;19.65;;;6.93;;
45033;SDS011;30771;47.988;-4.186;2023-07-31T08:20:57;18.25;;;6.20;;
45033;SDS011;30771;47.988;-4.186;2023-07-31T08:23:23;17.50;;;6.72;;
45033;SDS011;30771;47.988;-4.186;2023-07-31T08:25:48;18.58;;;5.97;;
45033;SDS011;30771;47.988;-4.186;2023-07-31T08:28:15;13.68;;;5.50;;
45033;SDS011;30771;47.988;-4.186;2023-07-31T08:30:41;11.60;;;5.40;;
45033;SDS011;30771;47.988;-4.186;2023-07-31T08:33:07;16.38;;;5.63;;
45033;SDS011;30771;47.988;-4.186;2023-07-31T08:35:32;16.63;;;5.80;;
45033;SDS011;30771;47.988;-4.186;2023-07-31T08:37:57;14.82;;;5.70;;
45033;SDS011;30771;47.988;-4.186;2023-07-31T08:40:23;16.73;;;5.60;;
45033;SDS011;30771;47.988;-4.186;2023-07-31T08:42:51;18.35;;;5.30;;
45033;SDS011;30771;47.988;-4.186;2023-07-31T08:45:18;14.93;;;5.10;;
45033;SDS011;30771;47.988;-4.186;2023-07-31T08:47:45;14.65;;;4.72;;
45033;SDS011;30771;47.988;-4.186;2023-07-31T08:50:12;11.90;;;5.50;;
45033;SDS011;30771;47.988;-4.186;2023-07-31T08:52:38;16.23;;;6.07;;
45033;SDS011;30771;47.988;-4.186;2023-07-31T08:55:04;17.40;;;5.75;;
45033;SDS011;30771;47.988;-4.186;2023-07-31T08:57:30;16.17;;;6.00;;
45033;SDS011;30771;47.988;-4.186;2023-07-31T08:59:57;22.52;;;7.45;;
45033;SDS011;30771;47.988;-4.186;2023-07-31T09:02:26;16.35;;;6.35;;
45033;SDS011;30771;47.988;-4.186;2023-07-31T09:04:59;16.48;;;5.50;;
45033;SDS011;30771;47.988;-4.186;2023-07-31T09:07:26;12.35;;;5.35;;
45033;SDS011;30771;47.988;-4.186;2023-07-31T09:09:52;11.05;;;4.05;;
45033;SDS011;30771;47.988;-4.186;2023-07-31T09:12:17;10.55;;;4.13;;
45033;SDS011;30771;47.988;-4.186;2023-07-31T09:14:44;10.93;;;3.88;;
45033;SDS011;30771;47.988;-4.186;2023-07-31T09:17:10;8.20;;;3.25;;
45033;SDS011;30771;47.988;-4.186;2023-07-31T09:19:36;10.25;;;3.92;;
45033;SDS011;30771;47.988;-4.186;2023-07-31T09:24:31;15.82;;;5.68;;
45033;SDS011;30771;47.988;-4.186;2023-07-31T09:27:01;18.40;;;6.38;;
45033;SDS011;30771;47.988;-4.186;2023-07-31T09:29:28;26.10;;;7.40;;
45033;SDS011;30771;47.988;-4.186;2023-07-31T09:31:55;25.42;;;8.32;;
45033;SDS011;30771;47.988;-4.186;2023-07-31T09:34:20;43.65;;;10.00;;
45033;SDS011;30771;47.988;-4.186;2023-07-31T09:36:54;47.28;;;10.07;;
45033;SDS011;30771;47.988;-4.186;2023-07-31T09:39:21;29.23;;;10.38;;
45033;SDS011;30771;47.988;-4.186;2023-07-31T09:41:53;51.30;;;10.95;;
45033;SDS011;30771;47.988;-4.186;2023-07-31T09:44:19;64.38;;;12.15;;
45033;SDS011;30771;47.988;-4.186;2023-07-31T09:46:46;57.63;;;11.93;;
45033;SDS011;30771;47.988;-4.186;2023-07-31T09:49:12;45.10;;;12.18;;
45033;SDS011;30771;47.988;-4.186;2023-07-31T09:51:38;126.78;;;13.35;;
45033;SDS011;30771;47.988;-4.186;2023-07-31T09:54:09;119.32;;;13.68;;
45033;SDS011;30771;47.988;-4.186;2023-07-31T09:56:36;77.30;;;12.23;;
45033;SDS011;30771;47.988;-4.186;2023-07-31T09:59:04;83.90;;;12.63;;
45033;SDS011;30771;47.988;-4.186;2023-07-31T10:01:30;115.35;;;13.68;;
45033;SDS011;30771;47.988;-4.186;2023-07-31T10:03:56;59.75;;;12.80;;
45033;SDS011;30771;47.988;-4.186;2023-07-31T10:06:23;53.25;;;12.23;;
45033;SDS011;30771;47.988;-4.186;2023-07-31T10:08:49;68.28;;;12.40;;
45033;SDS011;30771;47.988;-4.186;2023-07-31T10:11:17;58.33;;;12.52;;
45033;SDS011;30771;47.988;-4.186;2023-07-31T10:13:44;45.22;;;12.32;;
45033;SDS011;30771;47.988;-4.186;2023-07-31T10:16:10;36.88;;;11.32;;
45033;SDS011;30771;47.988;-4.186;2023-07-31T10:18:37;66.15;;;12.27;;
45033;SDS011;30771;47.988;-4.186;2023-07-31T10:21:04;110.80;;;12.57;;
45033;SDS011;30771;47.988;-4.186;2023-07-31T10:23:31;91.10;;;13.60;;
45033;SDS011;30771;47.988;-4.186;2023-07-31T10:25:56;70.57;;;13.90;;
45033;SDS011;30771;47.988;-4.186;2023-07-31T10:28:23;85.68;;;13.23;;
45033;SDS011;30771;47.988;-4.186;2023-07-31T10:30:50;50.50;;;12.07;;
45033;SDS011;30771;47.988;-4.186;2023-07-31T10:33:16;55.88;;;13.48;;
45033;SDS011;30771;47.988;-4.186;2023-07-31T10:35:43;55.85;;;14.45;;
45033;SDS011;30771;47.988;-4.186;2023-07-31T10:38:11;48.55;;;12.77;;
45033;SDS011;30771;47.988;-4.186;2023-07-31T10:40:38;51.25;;;13.63;;
45033;SDS011;30771;47.988;-4.186;2023-07-31T10:43:04;59.83;;;15.57;;
45033;SDS011;30771;47.988;-4.186;2023-07-31T10:50:28;53.90;;;14.75;;
45033;SDS011;30771;47.988;-4.186;2023-07-31T10:52:55;65.65;;;15.50;;
45033;SDS011;30771;47.988;-4.186;2023-07-31T10:55:26;60.30;;;13.52;;
45033;SDS011;30771;47.988;-4.186;2023-07-31T10:57:55;59.38;;;15.77;;
45033;SDS011;30771;47.988;-4.186;2023-07-31T11:08:16;74.28;;;15.85;;
45033;SDS011;30771;47.988;-4.186;2023-07-31T11:10:44;90.30;;;16.98;;
45033;SDS011;30771;47.988;-4.186;2023-07-31T11:13:11;68.60;;;16.15;;
45033;SDS011;30771;47.988;-4.186;2023-07-31T11:15:37;82.90;;;17.73;;
45033;SDS011;30771;47.988;-4.186;2023-07-31T11:18:02;80.75;;;16.85;;
45033;SDS011;30771;47.988;-4.186;2023-07-31T11:20:30;112.60;;;17.33;;
45033;SDS011;30771;47.988;-4.186;2023-07-31T11:22:58;81.82;;;17.52;;
45033;SDS011;30771;47.988;-4.186;2023-07-31T11:25:31;73.95;;;18.05;;
45033;SDS011;30771;47.988;-4.186;2023-07-31T11:28:01;79.70;;;18.35;;
45033;SDS011;30771;47.988;-4.186;2023-07-31T11:30:28;116.13;;;19.95;;
45033;SDS011;30771;47.988;-4.186;2023-07-31T11:32:54;68.32;;;17.95;;
45033;SDS011;30771;47.988;-4.186;2023-07-31T11:35:21;162.65;;;20.42;;
45033;SDS011;30771;47.988;-4.186;2023-07-31T11:37:47;108.68;;;17.90;;
45033;SDS011;30771;47.988;-4.186;2023-07-31T11:40:13;152.27;;;19.20;;
45033;SDS011;30771;47.988;-4.186;2023-07-31T11:42:39;60.25;;;14.75;;
45033;SDS011;30771;47.988;-4.186;2023-07-31T11:45:06;33.75;;;9.63;;
45033;SDS011;30771;47.988;-4.186;2023-07-31T11:47:33;13.77;;;6.00;;
45033;SDS011;30771;47.988;-4.186;2023-07-31T11:50:00;9.75;;;4.90;;
45033;SDS011;30771;47.988;-4.186;2023-07-31T11:52:27;12.85;;;3.95;;
45033;SDS011;30771;47.988;-4.186;2023-07-31T11:54:57;9.45;;;3.35;;
45033;SDS011;30771;47.988;-4.186;2023-07-31T11:57:23;6.25;;;2.38;;
45033;SDS011;30771;47.988;-4.186;2023-07-31T11:59:49;4.93;;;2.10;;
45033;SDS011;30771;47.988;-4.186;2023-07-31T12:02:15;4.10;;;1.63;;
45033;SDS011;30771;47.988;-4.186;2023-07-31T12:04:43;3.92;;;2.10;;
45033;SDS011;30771;47.988;-4.186;2023-07-31T12:07:09;7.30;;;2.38;;
45033;SDS011;30771;47.988;-4.186;2023-07-31T12:09:34;9.90;;;3.55;;
45033;SDS011;30771;47.988;-4.186;2023-07-31T12:12:00;7.45;;;3.63;;
45033;SDS011;30771;47.988;-4.186;2023-07-31T12:14:26;9.95;;;3.80;;
45033;SDS011;30771;47.988;-4.186;2023-07-31T12:17:00;5.53;;;3.05;;
45033;SDS011;30771;47.988;-4.186;2023-07-31T12:19:34;7.05;;;3.47;;
45033;SDS011;30771;47.988;-4.186;2023-07-31T12:22:00;6.40;;;3.83;;
45033;SDS011;30771;47.988;-4.186;2023-07-31T12:24:26;8.85;;;4.05;;
45033;SDS011;30771;47.988;-4.186;2023-07-31T12:26:51;6.75;;;3.60;;
45033;SDS011;30771;47.988;-4.186;2023-07-31T12:29:17;12.20;;;4.63;;
45033;SDS011;30771;47.988;-4.186;2023-07-31T12:31:43;9.13;;;3.92;;
45033;SDS011;30771;47.988;-4.186;2023-07-31T12:34:15;8.55;;;4.43;;
45033;SDS011;30771;47.988;-4.186;2023-07-31T12:36:42;10.35;;;4.40;;
45033;SDS011;30771;47.988;-4.186;2023-07-31T12:39:08;15.90;;;5.88;;
45033;SDS011;30771;47.988;-4.186;2023-07-31T12:41:33;13.98;;;5.75;;
45033;SDS011;30771;47.988;-4.186;2023-07-31T12:43:58;16.40;;;6.20;;
45033;SDS011;30771;47.988;-4.186;2023-07-31T12:46:24;16.27;;;6.63;;
45033;SDS011;30771;47.988;-4.186;2023-07-31T12:48:49;27.83;;;8.05;;
45033;SDS011;30771;47.988;-4.186;2023-07-31T12:51:15;33.28;;;9.93;;
45033;SDS011;30771;47.988;-4.186;2023-07-31T12:53:40;40.20;;;10.65;;
45033;SDS011;30771;47.988;-4.186;2023-07-31T12:56:05;32.72;;;9.57;;
45033;SDS011;30771;47.988;-4.186;2023-07-31T12:58:31;44.90;;;11.57;;
45033;SDS011;30771;47.988;-4.186;2023-07-31T13:00:56;59.70;;;12.23;;
45033;SDS011;30771;47.988;-4.186;2023-07-31T13:03:22;64.13;;;12.90;;
45033;SDS011;30771;47.988;-4.186;2023-07-31T13:05:47;78.75;;;14.63;;
45033;SDS011;30771;47.988;-4.186;2023-07-31T13:08:12;76.75;;;16.27;;
45033;SDS011;30771;47.988;-4.186;2023-07-31T13:10:40;58.00;;;15.70;;
45033;SDS011;30771;47.988;-4.186;2023-07-31T13:13:05;105.00;;;16.27;;
45033;SDS011;30771;47.988;-4.186;2023-07-31T13:15:31;97.82;;;16.58;;
45033;SDS011;30771;47.988;-4.186;2023-07-31T13:17:56;109.60;;;17.65;;
45033;SDS011;30771;47.988;-4.186;2023-07-31T13:20:22;97.88;;;19.42;;
45033;SDS011;30771;47.988;-4.186;2023-07-31T13:22:47;88.38;;;18.25;;
45033;SDS011;30771;47.988;-4.186;2023-07-31T13:25:13;106.40;;;18.15;;
45033;SDS011;30771;47.988;-4.186;2023-07-31T13:27:38;118.97;;;19.55;;
45033;SDS011;30771;47.988;-4.186;2023-07-31T13:30:03;95.45;;;18.92;;
45033;SDS011;30771;47.988;-4.186;2023-07-31T13:32:29;107.75;;;18.63;;
45033;SDS011;30771;47.988;-4.186;2023-07-31T13:34:55;94.15;;;19.35;;
45033;SDS011;30771;47.988;-4.186;2023-07-31T13:37:20;109.50;;;19.45;;
45033;SDS011;30771;47.988;-4.186;2023-07-31T13:39:46;104.47;;;19.20;;
45033;SDS011;30771;47.988;-4.186;2023-07-31T13:42:11;89.47;;;17.35;;
45033;SDS011;30771;47.988;-4.186;2023-07-31T13:44:40;95.18;;;19.38;;
45033;SDS011;30771;47.988;-4.186;2023-07-31T13:47:07;103.05;;;20.30;;
45033;SDS011;30771;47.988;-4.186;2023-07-31T13:49:33;101.68;;;19.08;;
45033;SDS011;30771;47.988;-4.186;2023-07-31T13:51:59;90.65;;;18.42;;
45033;SDS011;30771;47.988;-4.186;2023-07-31T13:54:25;109.90;;;19.52;;
45033;SDS011;30771;47.988;-4.186;2023-07-31T13:56:51;84.60;;;18.25;;
45033;SDS011;30771;47.988;-4.186;2023-07-31T13:59:17;106.18;;;20.00;;
45033;SDS011;30771;47.988;-4.186;2023-07-31T14:01:43;97.80;;;20.42;;
45033;SDS011;30771;47.988;-4.186;2023-07-31T14:04:09;92.40;;;18.38;;
45033;SDS011;30771;47.988;-4.186;2023-07-31T14:06:34;110.57;;;21.27;;
45033;SDS011;30771;47.988;-4.186;2023-07-31T14:09:00;99.47;;;21.33;;
45033;SDS011;30771;47.988;-4.186;2023-07-31T14:11:25;104.80;;;21.00;;
45033;SDS011;30771;47.988;-4.186;2023-07-31T14:13:51;105.45;;;21.20;;
45033;SDS011;30771;47.988;-4.186;2023-07-31T14:16:16;107.85;;;21.42;;
45033;SDS011;30771;47.988;-4.186;2023-07-31T14:18:42;96.22;;;21.23;;
45033;SDS011;30771;47.988;-4.186;2023-07-31T14:21:08;112.65;;;21.67;;
45033;SDS011;30771;47.988;-4.186;2023-07-31T14:23:33;110.60;;;21.83;;
45033;SDS011;30771;47.988;-4.186;2023-07-31T14:25:59;107.95;;;21.88;;
45033;SDS011;30771;47.988;-4.186;2023-07-31T14:28:24;106.00;;;21.45;;
45033;SDS011;30771;47.988;-4.186;2023-07-31T14:30:50;104.45;;;21.50;;
45033;SDS011;30771;47.988;-4.186;2023-07-31T14:33:15;101.38;;;21.95;;
45033;SDS011;30771;47.988;-4.186;2023-07-31T14:35:40;113.63;;;22.60;;
45033;SDS011;30771;47.988;-4.186;2023-07-31T14:38:06;107.30;;;23.58;;
45033;SDS011;30771;47.988;-4.186;2023-07-31T14:40:31;103.30;;;22.58;;
45033;SDS011;30771;47.988;-4.186;2023-07-31T14:42:57;99.60;;;22.15;;
45033;SDS011;30771;47.988;-4.186;2023-07-31T14:45:22;92.53;;;22.90;;
45033;SDS011;30771;47.988;-4.186;2023-07-31T14:47:48;116.50;;;23.17;;
45033;SDS011;30771;47.988;-4.186;2023-07-31T14:50:13;117.47;;;23.75;;
45033;SDS011;30771;47.988;-4.186;2023-07-31T14:52:38;109.78;;;22.83;;
45033;SDS011;30771;47.988;-4.186;2023-07-31T14:55:04;108.65;;;23.48;;
45033;SDS011;30771;47.988;-4.186;2023-07-31T14:57:30;111.03;;;22.80;;
45033;SDS011;30771;47.988;-4.186;2023-07-31T14:59:55;110.68;;;23.63;;
45033;SDS011;30771;47.988;-4.186;2023-07-31T15:02:21;99.82;;;21.77;;
45033;SDS011;30771;47.988;-4.186;2023-07-31T15:04:46;113.85;;;23.45;;
45033;SDS011;30771;47.988;-4.186;2023-07-31T15:07:11;110.38;;;23.13;;
45033;SDS011;30771;47.988;-4.186;2023-07-31T15:09:38;115.30;;;23.13;;
45033;SDS011;30771;47.988;-4.186;2023-07-31T15:12:04;115.80;;;23.55;;
45033;SDS011;30771;47.988;-4.186;2023-07-31T15:14:30;110.80;;;23.88;;
45033;SDS011;30771;47.988;-4.186;2023-07-31T15:16:56;99.88;;;21.92;;
45033;SDS011;30771;47.988;-4.186;2023-07-31T15:19:22;100.95;;;23.05;;
45033;SDS011;30771;47.988;-4.186;2023-07-31T15:21:48;91.45;;;21.10;;
45033;SDS011;30771;47.988;-4.186;2023-07-31T15:24:14;103.68;;;21.42;;
45033;SDS011;30771;47.988;-4.186;2023-07-31T15:26:39;82.88;;;20.20;;
45033;SDS011;30771;47.988;-4.186;2023-07-31T15:29:07;83.50;;;18.70;;
45033;SDS011;30771;47.988;-4.186;2023-07-31T15:31:40;75.45;;;17.20;;
45033;SDS011;30771;47.988;-4.186;2023-07-31T15:34:06;63.58;;;16.42;;
45033;SDS011;30771;47.988;-4.186;2023-07-31T15:36:32;81.75;;;18.05;;
45033;SDS011;30771;47.988;-4.186;2023-07-31T15:38:58;91.65;;;19.58;;
45033;SDS011;30771;47.988;-4.186;2023-07-31T15:41:23;76.53;;;18.63;;
45033;SDS011;30771;47.988;-4.186;2023-07-31T15:43:50;89.97;;;18.70;;
45033;SDS011;30771;47.988;-4.186;2023-07-31T15:46:16;93.10;;;20.08;;
45033;SDS011;30771;47.988;-4.186;2023-07-31T15:48:42;82.55;;;19.92;;
45033;SDS011;30771;47.988;-4.186;2023-07-31T15:51:07;72.32;;;17.50;;
45033;SDS011;30771;47.988;-4.186;2023-07-31T15:53:33;80.72;;;18.00;;
45033;SDS011;30771;47.988;-4.186;2023-07-31T15:55:58;57.28;;;15.35;;
45033;SDS011;30771;47.988;-4.186;2023-07-31T15:58:23;61.15;;;14.52;;
45033;SDS011;30771;47.988;-4.186;2023-07-31T16:00:49;49.13;;;13.48;;
45033;SDS011;30771;47.988;-4.186;2023-07-31T16:03:14;64.95;;;16.25;;
45033;SDS011;30771;47.988;-4.186;2023-07-31T16:05:40;87.63;;;18.27;;
45033;SDS011;30771;47.988;-4.186;2023-07-31T16:08:06;83.80;;;17.33;;
45033;SDS011;30771;47.988;-4.186;2023-07-31T16:10:32;79.20;;;18.20;;
45033;SDS011;30771;47.988;-4.186;2023-07-31T16:12:57;74.40;;;17.00;;
45033;SDS011;30771;47.988;-4.186;2023-07-31T16:15:23;97.05;;;17.83;;
45033;SDS011;30771;47.988;-4.186;2023-07-31T16:17:48;91.95;;;19.80;;
45033;SDS011;30771;47.988;-4.186;2023-07-31T16:20:14;97.32;;;19.65;;
45033;SDS011;30771;47.988;-4.186;2023-07-31T16:22:39;105.55;;;20.17;;
45033;SDS011;30771;47.988;-4.186;2023-07-31T16:25:04;103.97;;;20.08;;
45033;SDS011;30771;47.988;-4.186;2023-07-31T16:27:30;88.72;;;18.00;;
45033;SDS011;30771;47.988;-4.186;2023-07-31T16:29:56;90.13;;;20.63;;
45033;SDS011;30771;47.988;-4.186;2023-07-31T16:32:25;72.25;;;15.75;;
45033;SDS011;30771;47.988;-4.186;2023-07-31T16:34:51;68.25;;;14.55;;
45033;SDS011;30771;47.988;-4.186;2023-07-31T16:37:17;66.60;;;16.52;;
45033;SDS011;30771;47.988;-4.186;2023-07-31T16:39:42;81.97;;;17.85;;
45033;SDS011;30771;47.988;-4.186;2023-07-31T16:42:11;88.25;;;17.55;;
45033;SDS011;30771;47.988;-4.186;2023-07-31T16:44:37;79.15;;;17.30;;
45033;SDS011;30771;47.988;-4.186;2023-07-31T16:47:02;81.07;;;17.33;;
45033;SDS011;30771;47.988;-4.186;2023-07-31T16:49:27;70.95;;;17.63;;
45033;SDS011;30771;47.988;-4.186;2023-07-31T16:51:53;51.55;;;14.45;;
45033;SDS011;30771;47.988;-4.186;2023-07-31T16:54:18;63.30;;;14.80;;
45033;SDS011;30771;47.988;-4.186;2023-07-31T16:56:43;54.08;;;13.30;;
45033;SDS011;30771;47.988;-4.186;2023-07-31T16:59:09;62.53;;;14.60;;
45033;SDS011;30771;47.988;-4.186;2023-07-31T17:01:34;63.20;;;14.20;;
45033;SDS011;30771;47.988;-4.186;2023-07-31T17:03:59;43.63;;;11.60;;
45033;SDS011;30771;47.988;-4.186;2023-07-31T17:06:28;42.38;;;11.98;;
45033;SDS011;30771;47.988;-4.186;2023-07-31T17:08:53;32.28;;;9.57;;
45033;SDS011;30771;47.988;-4.186;2023-07-31T17:11:20;23.33;;;8.73;;
45033;SDS011;30771;47.988;-4.186;2023-07-31T17:13:45;18.02;;;5.43;;
45033;SDS011;30771;47.988;-4.186;2023-07-31T17:16:11;19.40;;;6.28;;
45033;SDS011;30771;47.988;-4.186;2023-07-31T17:18:36;18.40;;;5.00;;
45033;SDS011;30771;47.988;-4.186;2023-07-31T17:21:01;8.75;;;4.47;;
45033;SDS011;30771;47.988;-4.186;2023-07-31T17:23:27;10.10;;;3.65;;
45033;SDS011;30771;47.988;-4.186;2023-07-31T17:25:52;10.45;;;3.42;;
45033;SDS011;30771;47.988;-4.186;2023-07-31T17:28:17;11.75;;;4.07;;
45033;SDS011;30771;47.988;-4.186;2023-07-31T17:30:43;12.27;;;3.97;;
45033;SDS011;30771;47.988;-4.186;2023-07-31T17:33:08;11.45;;;4.95;;
45033;SDS011;30771;47.988;-4.186;2023-07-31T17:35:34;9.70;;;3.78;;
45033;SDS011;30771;47.988;-4.186;2023-07-31T17:37:59;7.45;;;3.58;;
45033;SDS011;30771;47.988;-4.186;2023-07-31T17:40:24;10.50;;;4.20;;
45033;SDS011;30771;47.988;-4.186;2023-07-31T17:42:50;12.50;;;4.65;;
45033;SDS011;30771;47.988;-4.186;2023-07-31T17:45:16;10.85;;;4.43;;
45033;SDS011;30771;47.988;-4.186;2023-07-31T17:47:43;17.95;;;4.55;;
45033;SDS011;30771;47.988;-4.186;2023-07-31T17:50:09;16.95;;;6.07;;
45033;SDS011;30771;47.988;-4.186;2023-07-31T17:52:34;23.08;;;7.25;;
45033;SDS011;30771;47.988;-4.186;2023-07-31T17:55:00;20.58;;;7.57;;
45033;SDS011;30771;47.988;-4.186;2023-07-31T17:57:26;30.50;;;8.75;;
45033;SDS011;30771;47.988;-4.186;2023-07-31T17:59:51;33.22;;;9.77;;
45033;SDS011;30771;47.988;-4.186;2023-07-31T18:02:17;34.78;;;9.30;;
45033;SDS011;30771;47.988;-4.186;2023-07-31T18:04:43;36.92;;;9.60;;
45033;SDS011;30771;47.988;-4.186;2023-07-31T18:07:08;42.70;;;9.63;;
45033;SDS011;30771;47.988;-4.186;2023-07-31T18:09:34;69.13;;;10.40;;
45033;SDS011;30771;47.988;-4.186;2023-07-31T18:11:59;41.33;;;9.70;;
45033;SDS011;30771;47.988;-4.186;2023-07-31T18:14:25;35.42;;;8.57;;
45033;SDS011;30771;47.988;-4.186;2023-07-31T18:16:52;35.70;;;8.37;;
45033;SDS011;30771;47.988;-4.186;2023-07-31T18:19:18;32.75;;;7.72;;
45033;SDS011;30771;47.988;-4.186;2023-07-31T18:21:43;19.90;;;7.80;;
45033;SDS011;30771;47.988;-4.186;2023-07-31T18:24:09;23.80;;;7.13;;
45033;SDS011;30771;47.988;-4.186;2023-07-31T18:26:34;23.00;;;6.82;;
45033;SDS011;30771;47.988;-4.186;2023-07-31T18:29:01;24.65;;;6.78;;
45033;SDS011;30771;47.988;-4.186;2023-07-31T18:31:27;23.25;;;6.85;;
45033;SDS011;30771;47.988;-4.186;2023-07-31T18:33:52;23.30;;;6.57;;
45033;SDS011;30771;47.988;-4.186;2023-07-31T18:36:18;23.73;;;6.97;;
45033;SDS011;30771;47.988;-4.186;2023-07-31T18:38:43;16.30;;;5.40;;
45033;SDS011;30771;47.988;-4.186;2023-07-31T18:41:08;13.02;;;5.32;;
45033;SDS011;30771;47.988;-4.186;2023-07-31T18:43:34;14.35;;;5.50;;
45033;SDS011;30771;47.988;-4.186;2023-07-31T18:45:59;11.63;;;4.25;;
45033;SDS011;30771;47.988;-4.186;2023-07-31T18:48:25;12.50;;;5.28;;
45033;SDS011;30771;47.988;-4.186;2023-07-31T18:50:51;12.68;;;5.35;;
45033;SDS011;30771;47.988;-4.186;2023-07-31T18:53:16;12.10;;;5.10;;
45033;SDS011;30771;47.988;-4.186;2023-07-31T18:55:43;10.60;;;4.43;;
45033;SDS011;30771;47.988;-4.186;2023-07-31T18:58:09;9.15;;;4.65;;
45033;SDS011;30771;47.988;-4.186;2023-07-31T19:00:34;11.65;;;4.28;;
45033;SDS011;30771;47.988;-4.186;2023-07-31T19:03:00;13.32;;;4.38;;
45033;SDS011;30771;47.988;-4.186;2023-07-31T19:05:25;10.30;;;4.20;;
45033;SDS011;30771;47.988;-4.186;2023-07-31T19:07:51;10.63;;;3.97;;
45033;SDS011;30771;47.988;-4.186;2023-07-31T19:10:16;7.40;;;3.60;;
45033;SDS011;30771;47.988;-4.186;2023-07-31T19:12:42;10.20;;;3.60;;
45033;SDS011;30771;47.988;-4.186;2023-07-31T19:15:08;11.35;;;3.65;;
45033;SDS011;30771;47.988;-4.186;2023-07-31T19:17:35;9.50;;;4.10;;
45033;SDS011;30771;47.988;-4.186;2023-07-31T19:20:03;10.70;;;4.10;;
45033;SDS011;30771;47.988;-4.186;2023-07-31T19:22:30;9.35;;;4.00;;
45033;SDS011;30771;47.988;-4.186;2023-07-31T19:24:56;6.70;;;3.53;;
45033;SDS011;30771;47.988;-4.186;2023-07-31T19:27:22;8.00;;;3.25;;
45033;SDS011;30771;47.988;-4.186;2023-07-31T19:29:47;10.57;;;3.42;;
45033;SDS011;30771;47.988;-4.186;2023-07-31T19:32:12;8.73;;;3.85;;
45033;SDS011;30771;47.988;-4.186;2023-07-31T19:34:39;11.63;;;4.00;;
45033;SDS011;30771;47.988;-4.186;2023-07-31T19:37:05;7.70;;;3.72;;
45033;SDS011;30771;47.988;-4.186;2023-07-31T19:39:30;8.52;;;3.53;;
45033;SDS011;30771;47.988;-4.186;2023-07-31T19:41:56;10.18;;;3.67;;
45033;SDS011;30771;47.988;-4.186;2023-07-31T19:44:21;7.78;;;3.00;;
45033;SDS011;30771;47.988;-4.186;2023-07-31T19:46:47;9.27;;;3.38;;
45033;SDS011;30771;47.988;-4.186;2023-07-31T19:49:13;8.98;;;3.20;;
45033;SDS011;30771;47.988;-4.186;2023-07-31T19:51:38;6.15;;;2.55;;
45033;SDS011;30771;47.988;-4.186;2023-07-31T19:54:04;8.38;;;2.83;;
45033;SDS011;30771;47.988;-4.186;2023-07-31T19:56:29;6.28;;;2.35;;
45033;SDS011;30771;47.988;-4.186;2023-07-31T19:58:54;8.27;;;2.50;;
45033;SDS011;30771;47.988;-4.186;2023-07-31T20:01:20;4.22;;;2.17;;
45033;SDS011;30771;47.988;-4.186;2023-07-31T20:03:45;4.70;;;2.20;;
45033;SDS011;30771;47.988;-4.186;2023-07-31T20:06:11;7.35;;;2.40;;
45033;SDS011;30771;47.988;-4.186;2023-07-31T20:08:36;3.75;;;1.98;;
45033;SDS011;30771;47.988;-4.186;2023-07-31T20:11:01;4.18;;;2.05;;
45033;SDS011;30771;47.988;-4.186;2023-07-31T20:13:27;7.82;;;2.40;;
45033;SDS011;30771;47.988;-4.186;2023-07-31T20:15:56;7.47;;;1.80;;
45033;SDS011;30771;47.988;-4.186;2023-07-31T20:18:21;6.97;;;2.05;;
45033;SDS011;30771;47.988;-4.186;2023-07-31T20:20:46;7.25;;;2.13;;
45033;SDS011;30771;47.988;-4.186;2023-07-31T20:23:12;6.68;;;2.08;;